sensor_id;sensor_type;location;lat;lon;timestamp;temperature;humidity
431;DHT22;202;48.764;9.172;2022-12-08T00:00:55;5.50;53.20
431;DHT22;202;48.764;9.172;2022-12-08T00:03:53;5.60;52.60
431;DHT22;202;48.764;9.172;2022-12-08T00:06:42;5.60;52.50
431;DHT22;202;48.764;9.172;2022-12-08T00:12:49;5.60;52.50
431;DHT22;202;48.764;9.172;2022-12-08T00:15:21;5.50;52.60
431;DHT22;202;48.764;9.172;2022-12-08T00:17:56;5.50;52.70
431;DHT22;202;48.764;9.172;2022-12-08T00:20:41;5.50;52.60
431;DHT22;202;48.764;9.172;2022-12-08T00:23:32;5.60;52.50
431;DHT22;202;48.764;9.172;2022-12-08T00:26:02;5.50;52.00
431;DHT22;202;48.764;9.172;2022-12-08T00:28:38;5.50;52.00
431;DHT22;202;48.764;9.172;2022-12-08T00:31:22;5.50;52.40
431;DHT22;202;48.764;9.172;2022-12-08T00:34:06;5.40;52.70
431;DHT22;202;48.764;9.172;2022-12-08T00:36:57;5.30;52.50
431;DHT22;202;48.764;9.172;2022-12-08T00:39:27;5.20;52.50
431;DHT22;202;48.764;9.172;2022-12-08T00:42:10;5.00;52.10
431;DHT22;202;48.764;9.172;2022-12-08T00:44:45;4.90;53.00
431;DHT22;202;48.764;9.172;2022-12-08T00:47:17;4.90;52.80
431;DHT22;202;48.764;9.172;2022-12-08T00:49:49;4.90;52.90
431;DHT22;202;48.764;9.172;2022-12-08T00:52:28;4.70;53.30
431;DHT22;202;48.764;9.172;2022-12-08T00:54:58;4.70;53.30
431;DHT22;202;48.764;9.172;2022-12-08T00:57:34;4.80;53.20
431;DHT22;202;48.764;9.172;2022-12-08T01:00:05;4.90;52.50
431;DHT22;202;48.764;9.172;2022-12-08T01:02:37;4.80;52.80
431;DHT22;202;48.764;9.172;2022-12-08T01:05:11;4.80;52.50
431;DHT22;202;48.764;9.172;2022-12-08T01:07:55;4.80;52.80
431;DHT22;202;48.764;9.172;2022-12-08T01:10:41;4.80;52.80
431;DHT22;202;48.764;9.172;2022-12-08T01:13:11;4.80;53.10
431;DHT22;202;48.764;9.172;2022-12-08T01:15:46;4.70;53.00
431;DHT22;202;48.764;9.172;2022-12-08T01:21:14;4.70;53.40
431;DHT22;202;48.764;9.172;2022-12-08T01:27:17;4.80;53.10
431;DHT22;202;48.764;9.172;2022-12-08T01:29:50;4.80;53.10
431;DHT22;202;48.764;9.172;2022-12-08T01:32:26;4.70;52.60
431;DHT22;202;48.764;9.172;2022-12-08T01:35:10;4.60;53.40
431;DHT22;202;48.764;9.172;2022-12-08T01:37:51;4.60;53.90
431;DHT22;202;48.764;9.172;2022-12-08T01:42:59;4.50;53.90
431;DHT22;202;48.764;9.172;2022-12-08T01:45:32;4.50;53.80
431;DHT22;202;48.764;9.172;2022-12-08T01:48:22;4.40;53.40
431;DHT22;202;48.764;9.172;2022-12-08T01:51:08;4.30;54.20
431;DHT22;202;48.764;9.172;2022-12-08T01:53:44;4.20;54.30
431;DHT22;202;48.764;9.172;2022-12-08T01:56:26;4.10;54.40
431;DHT22;202;48.764;9.172;2022-12-08T01:58:58;4.10;54.60
431;DHT22;202;48.764;9.172;2022-12-08T02:01:25;4.20;55.40
431;DHT22;202;48.764;9.172;2022-12-08T02:03:55;4.20;54.40
431;DHT22;202;48.764;9.172;2022-12-08T02:06:25;4.20;54.10
431;DHT22;202;48.764;9.172;2022-12-08T02:08:55;4.40;54.20
431;DHT22;202;48.764;9.172;2022-12-08T02:11:23;4.30;54.20
431;DHT22;202;48.764;9.172;2022-12-08T02:14:04;4.40;54.20
431;DHT22;202;48.764;9.172;2022-12-08T02:16:36;4.40;54.20
431;DHT22;202;48.764;9.172;2022-12-08T02:19:39;4.40;54.20
431;DHT22;202;48.764;9.172;2022-12-08T02:22:13;4.40;54.20
431;DHT22;202;48.764;9.172;2022-12-08T02:24:52;4.40;53.90
431;DHT22;202;48.764;9.172;2022-12-08T02:27:32;4.30;54.20
431;DHT22;202;48.764;9.172;2022-12-08T02:30:19;4.20;54.80
431;DHT22;202;48.764;9.172;2022-12-08T02:33:17;4.20;54.10
431;DHT22;202;48.764;9.172;2022-12-08T02:35:55;4.20;54.50
431;DHT22;202;48.764;9.172;2022-12-08T02:38:34;4.20;54.30
431;DHT22;202;48.764;9.172;2022-12-08T02:41:10;4.20;54.10
431;DHT22;202;48.764;9.172;2022-12-08T02:43:43;4.10;54.10
431;DHT22;202;48.764;9.172;2022-12-08T02:46:15;4.20;54.10
431;DHT22;202;48.764;9.172;2022-12-08T02:48:44;4.20;54.10
431;DHT22;202;48.764;9.172;2022-12-08T02:51:14;4.00;53.90
431;DHT22;202;48.764;9.172;2022-12-08T02:53:42;4.00;54.00
431;DHT22;202;48.764;9.172;2022-12-08T02:56:21;3.90;54.40
431;DHT22;202;48.764;9.172;2022-12-08T03:09:32;3.60;55.60
431;DHT22;202;48.764;9.172;2022-12-08T03:43:47;3.10;57.80
431;DHT22;202;48.764;9.172;2022-12-08T03:46:54;3.20;57.90
431;DHT22;202;48.764;9.172;2022-12-08T03:53:42;3.20;57.30
431;DHT22;202;48.764;9.172;2022-12-08T04:11:52;3.00;58.30
431;DHT22;202;48.764;9.172;2022-12-08T04:24:52;3.00;58.70
431;DHT22;202;48.764;9.172;2022-12-08T04:27:24;2.90;58.90
431;DHT22;202;48.764;9.172;2022-12-08T04:29:51;2.90;59.00
431;DHT22;202;48.764;9.172;2022-12-08T04:32:18;3.00;58.30
431;DHT22;202;48.764;9.172;2022-12-08T04:34:45;3.10;57.80
431;DHT22;202;48.764;9.172;2022-12-08T04:37:12;3.10;57.80
431;DHT22;202;48.764;9.172;2022-12-08T04:39:39;3.10;57.10
431;DHT22;202;48.764;9.172;2022-12-08T04:42:07;3.20;57.90
431;DHT22;202;48.764;9.172;2022-12-08T04:44:34;3.30;57.20
431;DHT22;202;48.764;9.172;2022-12-08T04:47:01;3.30;57.40
431;DHT22;202;48.764;9.172;2022-12-08T04:52:04;3.30;56.80
431;DHT22;202;48.764;9.172;2022-12-08T04:54:37;3.30;56.70
431;DHT22;202;48.764;9.172;2022-12-08T04:57:08;3.30;56.40
431;DHT22;202;48.764;9.172;2022-12-08T04:59:35;3.20;57.00
431;DHT22;202;48.764;9.172;2022-12-08T05:02:02;3.20;57.40
431;DHT22;202;48.764;9.172;2022-12-08T05:33:17;3.10;56.20
431;DHT22;202;48.764;9.172;2022-12-08T05:36:03;3.00;56.50
431;DHT22;202;48.764;9.172;2022-12-08T05:38:45;2.90;56.40
431;DHT22;202;48.764;9.172;2022-12-08T05:42:10;2.90;57.60
431;DHT22;202;48.764;9.172;2022-12-08T05:44:42;2.90;57.20
431;DHT22;202;48.764;9.172;2022-12-08T05:47:08;2.70;58.00
431;DHT22;202;48.764;9.172;2022-12-08T05:49:37;2.80;58.00
431;DHT22;202;48.764;9.172;2022-12-08T05:52:04;2.90;57.70
431;DHT22;202;48.764;9.172;2022-12-08T05:54:31;3.00;57.20
431;DHT22;202;48.764;9.172;2022-12-08T05:56:59;3.00;56.80
431;DHT22;202;48.764;9.172;2022-12-08T05:59:26;3.00;56.30
431;DHT22;202;48.764;9.172;2022-12-08T06:01:53;3.10;56.70
431;DHT22;202;48.764;9.172;2022-12-08T06:04:19;3.10;56.50
431;DHT22;202;48.764;9.172;2022-12-08T06:06:48;3.20;56.40
431;DHT22;202;48.764;9.172;2022-12-08T06:09:15;3.10;56.80
431;DHT22;202;48.764;9.172;2022-12-08T06:11:42;3.20;56.80
431;DHT22;202;48.764;9.172;2022-12-08T06:14:11;3.30;56.70
431;DHT22;202;48.764;9.172;2022-12-08T06:16:39;3.30;56.60
431;DHT22;202;48.764;9.172;2022-12-08T06:19:06;3.30;56.00
431;DHT22;202;48.764;9.172;2022-12-08T06:21:32;3.40;56.00
431;DHT22;202;48.764;9.172;2022-12-08T06:24:01;3.40;56.10
431;DHT22;202;48.764;9.172;2022-12-08T06:26:28;3.40;56.10
431;DHT22;202;48.764;9.172;2022-12-08T06:28:55;3.20;55.70
431;DHT22;202;48.764;9.172;2022-12-08T06:31:26;3.20;55.90
431;DHT22;202;48.764;9.172;2022-12-08T06:33:53;3.10;55.80
431;DHT22;202;48.764;9.172;2022-12-08T06:36:23;3.00;55.70
431;DHT22;202;48.764;9.172;2022-12-08T06:38:50;2.80;56.40
431;DHT22;202;48.764;9.172;2022-12-08T06:41:18;2.90;55.90
431;DHT22;202;48.764;9.172;2022-12-08T06:43:45;2.60;56.50
431;DHT22;202;48.764;9.172;2022-12-08T06:46:14;2.50;57.20
431;DHT22;202;48.764;9.172;2022-12-08T06:48:41;2.60;57.40
431;DHT22;202;48.764;9.172;2022-12-08T06:51:10;2.70;57.50
431;DHT22;202;48.764;9.172;2022-12-08T06:53:38;2.80;57.00
431;DHT22;202;48.764;9.172;2022-12-08T06:56:06;2.90;56.90
431;DHT22;202;48.764;9.172;2022-12-08T06:58:35;3.00;56.30
431;DHT22;202;48.764;9.172;2022-12-08T07:01:06;3.00;56.10
431;DHT22;202;48.764;9.172;2022-12-08T07:03:34;3.00;55.80
431;DHT22;202;48.764;9.172;2022-12-08T07:06:01;3.00;56.40
431;DHT22;202;48.764;9.172;2022-12-08T07:08:28;3.00;56.80
431;DHT22;202;48.764;9.172;2022-12-08T07:10:55;2.90;56.70
431;DHT22;202;48.764;9.172;2022-12-08T07:13:22;2.90;56.60
431;DHT22;202;48.764;9.172;2022-12-08T07:15:51;2.90;56.30
431;DHT22;202;48.764;9.172;2022-12-08T07:18:18;2.90;56.30
431;DHT22;202;48.764;9.172;2022-12-08T07:20:45;3.00;56.20
431;DHT22;202;48.764;9.172;2022-12-08T07:23:12;3.00;55.30
431;DHT22;202;48.764;9.172;2022-12-08T07:25:39;2.80;55.00
431;DHT22;202;48.764;9.172;2022-12-08T07:28:09;2.90;56.10
431;DHT22;202;48.764;9.172;2022-12-08T07:30:37;3.00;56.20
431;DHT22;202;48.764;9.172;2022-12-08T07:33:05;3.00;55.40
431;DHT22;202;48.764;9.172;2022-12-08T07:35:32;3.00;55.10
431;DHT22;202;48.764;9.172;2022-12-08T07:37:59;3.00;55.90
431;DHT22;202;48.764;9.172;2022-12-08T07:40:26;3.10;55.80
431;DHT22;202;48.764;9.172;2022-12-08T07:42:56;3.10;56.30
431;DHT22;202;48.764;9.172;2022-12-08T07:45:39;3.10;55.60
431;DHT22;202;48.764;9.172;2022-12-08T07:48:08;3.00;55.90
431;DHT22;202;48.764;9.172;2022-12-08T07:50:35;2.80;55.80
431;DHT22;202;48.764;9.172;2022-12-08T07:53:04;2.80;56.40
431;DHT22;202;48.764;9.172;2022-12-08T07:55:45;2.90;56.20
431;DHT22;202;48.764;9.172;2022-12-08T07:58:12;3.00;56.10
431;DHT22;202;48.764;9.172;2022-12-08T08:00:40;3.00;56.30
431;DHT22;202;48.764;9.172;2022-12-08T08:03:10;3.20;56.30
431;DHT22;202;48.764;9.172;2022-12-08T08:05:37;3.10;56.30
431;DHT22;202;48.764;9.172;2022-12-08T08:08:05;3.30;56.00
431;DHT22;202;48.764;9.172;2022-12-08T08:10:32;3.40;55.30
431;DHT22;202;48.764;9.172;2022-12-08T08:12:59;3.50;54.90
431;DHT22;202;48.764;9.172;2022-12-08T08:15:28;3.50;54.40
431;DHT22;202;48.764;9.172;2022-12-08T08:17:55;3.50;54.30
431;DHT22;202;48.764;9.172;2022-12-08T08:20:25;3.50;54.60
431;DHT22;202;48.764;9.172;2022-12-08T08:22:53;3.50;53.50
431;DHT22;202;48.764;9.172;2022-12-08T08:25:21;3.50;54.40
431;DHT22;202;48.764;9.172;2022-12-08T08:27:48;3.70;53.70
431;DHT22;202;48.764;9.172;2022-12-08T08:30:16;3.70;53.70
431;DHT22;202;48.764;9.172;2022-12-08T08:32:44;3.70;53.30
431;DHT22;202;48.764;9.172;2022-12-08T08:35:11;3.80;53.30
431;DHT22;202;48.764;9.172;2022-12-08T08:37:40;3.80;52.50
431;DHT22;202;48.764;9.172;2022-12-08T08:40:07;3.80;53.10
431;DHT22;202;48.764;9.172;2022-12-08T08:42:34;3.90;52.50
431;DHT22;202;48.764;9.172;2022-12-08T08:45:02;3.90;52.50
431;DHT22;202;48.764;9.172;2022-12-08T08:47:29;3.90;52.20
431;DHT22;202;48.764;9.172;2022-12-08T08:49:55;4.00;52.10
431;DHT22;202;48.764;9.172;2022-12-08T08:52:25;4.00;51.40
431;DHT22;202;48.764;9.172;2022-12-08T08:57:51;4.00;51.20
431;DHT22;202;48.764;9.172;2022-12-08T09:00:20;4.00;51.50
431;DHT22;202;48.764;9.172;2022-12-08T09:02:48;4.10;52.30
431;DHT22;202;48.764;9.172;2022-12-08T09:05:15;4.20;51.80
431;DHT22;202;48.764;9.172;2022-12-08T09:07:42;4.20;51.00
431;DHT22;202;48.764;9.172;2022-12-08T09:10:10;4.30;50.90
431;DHT22;202;48.764;9.172;2022-12-08T09:12:37;4.30;50.70
431;DHT22;202;48.764;9.172;2022-12-08T09:15:06;4.30;49.50
431;DHT22;202;48.764;9.172;2022-12-08T09:17:33;4.20;50.60
431;DHT22;202;48.764;9.172;2022-12-08T09:20:01;4.20;50.60
431;DHT22;202;48.764;9.172;2022-12-08T09:22:28;4.30;50.80
431;DHT22;202;48.764;9.172;2022-12-08T09:24:55;4.30;50.70
431;DHT22;202;48.764;9.172;2022-12-08T09:27:22;4.20;51.00
431;DHT22;202;48.764;9.172;2022-12-08T09:29:49;4.30;50.90
431;DHT22;202;48.764;9.172;2022-12-08T09:32:17;4.30;50.30
431;DHT22;202;48.764;9.172;2022-12-08T09:34:44;4.10;50.60
431;DHT22;202;48.764;9.172;2022-12-08T09:37:25;3.80;51.70
431;DHT22;202;48.764;9.172;2022-12-08T09:39:52;3.80;52.30
431;DHT22;202;48.764;9.172;2022-12-08T09:42:29;3.90;52.10
431;DHT22;202;48.764;9.172;2022-12-08T09:45:04;4.00;52.10
431;DHT22;202;48.764;9.172;2022-12-08T09:47:58;4.10;51.90
431;DHT22;202;48.764;9.172;2022-12-08T09:50:31;4.20;51.40
431;DHT22;202;48.764;9.172;2022-12-08T09:53:03;4.30;50.90
431;DHT22;202;48.764;9.172;2022-12-08T09:55:40;4.50;50.40
431;DHT22;202;48.764;9.172;2022-12-08T09:58:20;4.40;50.20
431;DHT22;202;48.764;9.172;2022-12-08T10:00:50;4.40;50.60
431;DHT22;202;48.764;9.172;2022-12-08T10:03:29;4.60;50.40
431;DHT22;202;48.764;9.172;2022-12-08T10:06:04;4.50;49.60
431;DHT22;202;48.764;9.172;2022-12-08T10:08:47;4.50;49.60
431;DHT22;202;48.764;9.172;2022-12-08T10:11:21;4.40;49.50
431;DHT22;202;48.764;9.172;2022-12-08T10:13:56;4.50;49.60
431;DHT22;202;48.764;9.172;2022-12-08T10:16:32;4.70;49.80
431;DHT22;202;48.764;9.172;2022-12-08T10:19:12;4.70;49.60
431;DHT22;202;48.764;9.172;2022-12-08T10:21:56;4.80;49.20
431;DHT22;202;48.764;9.172;2022-12-08T10:24:30;4.80;49.00
431;DHT22;202;48.764;9.172;2022-12-08T10:27:13;4.90;49.50
431;DHT22;202;48.764;9.172;2022-12-08T10:29:40;5.10;48.20
431;DHT22;202;48.764;9.172;2022-12-08T10:32:15;5.10;48.00
431;DHT22;202;48.764;9.172;2022-12-08T10:35:07;5.20;48.30
431;DHT22;202;48.764;9.172;2022-12-08T10:37:35;5.30;48.10
431;DHT22;202;48.764;9.172;2022-12-08T10:40:17;5.60;47.50
431;DHT22;202;48.764;9.172;2022-12-08T10:42:47;5.20;47.60
431;DHT22;202;48.764;9.172;2022-12-08T10:45:21;5.40;46.90
431;DHT22;202;48.764;9.172;2022-12-08T10:48:00;5.40;46.30
431;DHT22;202;48.764;9.172;2022-12-08T10:50:34;5.60;46.60
431;DHT22;202;48.764;9.172;2022-12-08T10:53:21;5.70;46.50
431;DHT22;202;48.764;9.172;2022-12-08T10:55:50;5.70;45.10
431;DHT22;202;48.764;9.172;2022-12-08T10:58:33;5.60;45.80
431;DHT22;202;48.764;9.172;2022-12-08T11:01:04;5.90;45.40
431;DHT22;202;48.764;9.172;2022-12-08T11:03:43;5.80;44.20
431;DHT22;202;48.764;9.172;2022-12-08T11:06:16;5.80;45.80
431;DHT22;202;48.764;9.172;2022-12-08T11:08:50;6.00;45.40
431;DHT22;202;48.764;9.172;2022-12-08T11:11:20;6.30;45.20
431;DHT22;202;48.764;9.172;2022-12-08T11:13:51;6.40;44.50
431;DHT22;202;48.764;9.172;2022-12-08T11:16:32;6.50;44.10
431;DHT22;202;48.764;9.172;2022-12-08T11:19:29;6.70;43.60
431;DHT22;202;48.764;9.172;2022-12-08T11:22:25;6.60;42.60
431;DHT22;202;48.764;9.172;2022-12-08T11:25:11;6.50;43.00
431;DHT22;202;48.764;9.172;2022-12-08T11:27:45;6.50;43.40
431;DHT22;202;48.764;9.172;2022-12-08T11:30:15;6.40;43.30
431;DHT22;202;48.764;9.172;2022-12-08T11:33:00;6.50;42.90
431;DHT22;202;48.764;9.172;2022-12-08T11:35:44;6.60;42.60
431;DHT22;202;48.764;9.172;2022-12-08T11:38:27;6.40;43.00
431;DHT22;202;48.764;9.172;2022-12-08T11:41:10;6.40;42.90
431;DHT22;202;48.764;9.172;2022-12-08T13:11:54;6.50;41.50
431;DHT22;202;48.764;9.172;2022-12-08T13:14:27;6.40;41.20
431;DHT22;202;48.764;9.172;2022-12-08T13:16:57;6.40;41.50
431;DHT22;202;48.764;9.172;2022-12-08T13:19:24;6.50;40.90
431;DHT22;202;48.764;9.172;2022-12-08T13:21:52;6.50;40.60
431;DHT22;202;48.764;9.172;2022-12-08T14:08:25;6.20;41.40
431;DHT22;202;48.764;9.172;2022-12-08T14:10:58;6.20;41.40
431;DHT22;202;48.764;9.172;2022-12-08T14:13:28;6.30;41.50
431;DHT22;202;48.764;9.172;2022-12-08T14:15:55;6.40;41.60
431;DHT22;202;48.764;9.172;2022-12-08T14:20:58;6.40;40.90
431;DHT22;202;48.764;9.172;2022-12-08T14:23:27;6.40;40.70
431;DHT22;202;48.764;9.172;2022-12-08T14:25:54;6.30;41.50
431;DHT22;202;48.764;9.172;2022-12-08T14:28:22;6.30;41.50
431;DHT22;202;48.764;9.172;2022-12-08T14:30:49;6.00;41.20
431;DHT22;202;48.764;9.172;2022-12-08T14:33:16;5.90;41.20
431;DHT22;202;48.764;9.172;2022-12-08T14:35:48;5.90;41.20
431;DHT22;202;48.764;9.172;2022-12-08T14:38:18;5.90;41.20
431;DHT22;202;48.764;9.172;2022-12-08T14:40:58;5.80;41.80
431;DHT22;202;48.764;9.172;2022-12-08T14:43:27;5.80;41.10
431;DHT22;202;48.764;9.172;2022-12-08T14:45:57;5.80;41.40
431;DHT22;202;48.764;9.172;2022-12-08T14:48:31;6.00;41.30
431;DHT22;202;48.764;9.172;2022-12-08T14:51:08;6.10;41.30
431;DHT22;202;48.764;9.172;2022-12-08T14:53:39;6.10;41.30
431;DHT22;202;48.764;9.172;2022-12-08T14:56:15;6.00;41.20
431;DHT22;202;48.764;9.172;2022-12-08T14:58:43;6.10;41.30
431;DHT22;202;48.764;9.172;2022-12-08T15:01:13;6.10;41.30
431;DHT22;202;48.764;9.172;2022-12-08T15:03:41;6.10;41.30
431;DHT22;202;48.764;9.172;2022-12-08T15:06:09;6.10;41.30
431;DHT22;202;48.764;9.172;2022-12-08T15:08:50;6.10;41.30
431;DHT22;202;48.764;9.172;2022-12-08T15:11:30;6.10;41.30
431;DHT22;202;48.764;9.172;2022-12-08T15:13:57;6.10;41.30
431;DHT22;202;48.764;9.172;2022-12-08T15:16:29;6.10;41.30
431;DHT22;202;48.764;9.172;2022-12-08T15:19:03;6.10;41.40
431;DHT22;202;48.764;9.172;2022-12-08T15:21:35;6.00;41.50
431;DHT22;202;48.764;9.172;2022-12-08T15:24:03;6.10;42.00
431;DHT22;202;48.764;9.172;2022-12-08T15:26:42;6.00;41.80
431;DHT22;202;48.764;9.172;2022-12-08T15:29:12;6.10;41.90
431;DHT22;202;48.764;9.172;2022-12-08T15:31:39;6.20;41.50
431;DHT22;202;48.764;9.172;2022-12-08T15:34:06;6.10;41.30
431;DHT22;202;48.764;9.172;2022-12-08T15:36:33;6.20;41.40
431;DHT22;202;48.764;9.172;2022-12-08T15:39:00;6.20;41.40
431;DHT22;202;48.764;9.172;2022-12-08T15:41:27;6.30;41.30
431;DHT22;202;48.764;9.172;2022-12-08T15:43:55;6.20;41.00
431;DHT22;202;48.764;9.172;2022-12-08T15:46:22;6.10;41.30
431;DHT22;202;48.764;9.172;2022-12-08T15:48:49;6.10;41.30
431;DHT22;202;48.764;9.172;2022-12-08T15:51:16;6.20;41.40
431;DHT22;202;48.764;9.172;2022-12-08T15:53:43;6.30;41.00
431;DHT22;202;48.764;9.172;2022-12-08T15:56:11;6.30;41.50
431;DHT22;202;48.764;9.172;2022-12-08T15:58:39;6.30;41.40
431;DHT22;202;48.764;9.172;2022-12-08T16:01:08;6.30;41.40
431;DHT22;202;48.764;9.172;2022-12-08T16:03:35;6.10;41.30
431;DHT22;202;48.764;9.172;2022-12-08T16:06:02;6.00;41.30
431;DHT22;202;48.764;9.172;2022-12-08T16:08:29;6.20;41.40
431;DHT22;202;48.764;9.172;2022-12-08T16:10:56;6.20;41.40
431;DHT22;202;48.764;9.172;2022-12-08T16:13:43;6.10;41.30
431;DHT22;202;48.764;9.172;2022-12-08T16:16:23;5.90;42.40
431;DHT22;202;48.764;9.172;2022-12-08T16:18:51;5.90;41.90
431;DHT22;202;48.764;9.172;2022-12-08T16:21:20;5.70;42.70
431;DHT22;202;48.764;9.172;2022-12-08T16:23:47;5.60;43.00
431;DHT22;202;48.764;9.172;2022-12-08T16:26:15;5.50;43.00
431;DHT22;202;48.764;9.172;2022-12-08T16:28:43;5.30;44.00
431;DHT22;202;48.764;9.172;2022-12-08T16:31:11;5.50;43.70
431;DHT22;202;48.764;9.172;2022-12-08T16:33:40;5.50;42.90
431;DHT22;202;48.764;9.172;2022-12-08T16:36:08;5.60;43.10
431;DHT22;202;48.764;9.172;2022-12-08T16:38:36;5.50;43.20
431;DHT22;202;48.764;9.172;2022-12-08T16:41:03;5.40;43.40
431;DHT22;202;48.764;9.172;2022-12-08T16:43:48;5.40;43.50
431;DHT22;202;48.764;9.172;2022-12-08T16:46:17;5.50;43.40
431;DHT22;202;48.764;9.172;2022-12-08T16:48:46;5.50;43.40
431;DHT22;202;48.764;9.172;2022-12-08T16:51:17;5.50;43.20
431;DHT22;202;48.764;9.172;2022-12-08T16:53:44;5.40;43.70
431;DHT22;202;48.764;9.172;2022-12-08T16:56:15;5.40;43.40
431;DHT22;202;48.764;9.172;2022-12-08T16:58:42;5.40;43.80
431;DHT22;202;48.764;9.172;2022-12-08T17:01:10;5.40;43.90
431;DHT22;202;48.764;9.172;2022-12-08T17:03:37;5.40;43.80
431;DHT22;202;48.764;9.172;2022-12-08T17:06:09;5.60;44.10
431;DHT22;202;48.764;9.172;2022-12-08T17:08:36;5.70;43.90
431;DHT22;202;48.764;9.172;2022-12-08T17:11:04;5.80;43.50
431;DHT22;202;48.764;9.172;2022-12-08T17:13:38;5.90;43.40
431;DHT22;202;48.764;9.172;2022-12-08T17:16:07;5.90;43.00
431;DHT22;202;48.764;9.172;2022-12-08T17:18:34;5.90;42.40
431;DHT22;202;48.764;9.172;2022-12-08T17:21:02;5.90;42.50
431;DHT22;202;48.764;9.172;2022-12-08T17:23:30;5.90;42.70
431;DHT22;202;48.764;9.172;2022-12-08T17:25:58;6.00;42.90
431;DHT22;202;48.764;9.172;2022-12-08T17:28:25;6.00;42.70
431;DHT22;202;48.764;9.172;2022-12-08T17:30:55;5.90;42.20
431;DHT22;202;48.764;9.172;2022-12-08T17:33:22;5.90;42.90
431;DHT22;202;48.764;9.172;2022-12-08T17:35:50;5.90;43.30
431;DHT22;202;48.764;9.172;2022-12-08T17:38:18;5.90;43.50
431;DHT22;202;48.764;9.172;2022-12-08T17:40:47;6.00;42.60
431;DHT22;202;48.764;9.172;2022-12-08T17:43:15;6.00;42.30
431;DHT22;202;48.764;9.172;2022-12-08T17:45:43;5.90;42.20
431;DHT22;202;48.764;9.172;2022-12-08T17:48:10;5.80;42.30
431;DHT22;202;48.764;9.172;2022-12-08T17:50:38;5.80;43.30
431;DHT22;202;48.764;9.172;2022-12-08T17:53:05;5.70;42.80
431;DHT22;202;48.764;9.172;2022-12-08T17:55:32;5.80;43.00
431;DHT22;202;48.764;9.172;2022-12-08T17:58:00;5.80;43.00
431;DHT22;202;48.764;9.172;2022-12-08T18:00:27;5.80;43.30
431;DHT22;202;48.764;9.172;2022-12-08T18:02:55;5.80;43.40
431;DHT22;202;48.764;9.172;2022-12-08T18:05:23;5.80;43.70
431;DHT22;202;48.764;9.172;2022-12-08T18:07:50;5.90;43.30
431;DHT22;202;48.764;9.172;2022-12-08T18:10:17;5.80;42.20
431;DHT22;202;48.764;9.172;2022-12-08T18:12:44;5.70;42.90
431;DHT22;202;48.764;9.172;2022-12-08T18:15:17;5.60;43.40
431;DHT22;202;48.764;9.172;2022-12-08T18:18:00;5.50;44.00
431;DHT22;202;48.764;9.172;2022-12-08T18:20:33;5.50;43.80
431;DHT22;202;48.764;9.172;2022-12-08T18:23:17;5.50;44.00
431;DHT22;202;48.764;9.172;2022-12-08T18:25:48;5.40;44.00
431;DHT22;202;48.764;9.172;2022-12-08T18:28:21;5.50;43.60
431;DHT22;202;48.764;9.172;2022-12-08T18:30:50;5.50;44.40
431;DHT22;202;48.764;9.172;2022-12-08T18:33:16;5.50;44.10
431;DHT22;202;48.764;9.172;2022-12-08T18:35:43;5.50;44.50
431;DHT22;202;48.764;9.172;2022-12-08T18:38:10;5.60;43.60
431;DHT22;202;48.764;9.172;2022-12-08T18:40:42;5.50;43.80
431;DHT22;202;48.764;9.172;2022-12-08T18:43:09;5.50;44.30
431;DHT22;202;48.764;9.172;2022-12-08T18:45:35;5.60;44.50
431;DHT22;202;48.764;9.172;2022-12-08T18:48:05;5.60;44.00
431;DHT22;202;48.764;9.172;2022-12-08T18:50:32;5.70;44.40
431;DHT22;202;48.764;9.172;2022-12-08T18:52:59;5.60;46.20
431;DHT22;202;48.764;9.172;2022-12-08T18:55:26;5.60;45.30
431;DHT22;202;48.764;9.172;2022-12-08T18:57:53;5.50;44.90
431;DHT22;202;48.764;9.172;2022-12-08T19:00:20;5.50;44.90
431;DHT22;202;48.764;9.172;2022-12-08T19:02:47;5.50;45.20
431;DHT22;202;48.764;9.172;2022-12-08T19:05:15;5.50;45.80
431;DHT22;202;48.764;9.172;2022-12-08T19:07:42;5.60;45.30
431;DHT22;202;48.764;9.172;2022-12-08T19:10:10;5.70;45.50
431;DHT22;202;48.764;9.172;2022-12-08T19:12:37;5.60;45.80
431;DHT22;202;48.764;9.172;2022-12-08T19:15:07;5.60;45.80
431;DHT22;202;48.764;9.172;2022-12-08T19:17:37;5.50;45.70
431;DHT22;202;48.764;9.172;2022-12-08T19:20:05;5.50;45.70
431;DHT22;202;48.764;9.172;2022-12-08T19:22:34;5.50;45.70
431;DHT22;202;48.764;9.172;2022-12-08T19:25:01;5.50;45.90
431;DHT22;202;48.764;9.172;2022-12-08T19:27:28;5.40;46.10
431;DHT22;202;48.764;9.172;2022-12-08T19:30:00;5.40;45.20
431;DHT22;202;48.764;9.172;2022-12-08T19:32:27;5.30;44.70
431;DHT22;202;48.764;9.172;2022-12-08T19:34:55;5.30;45.30
431;DHT22;202;48.764;9.172;2022-12-08T19:37:22;5.20;45.40
431;DHT22;202;48.764;9.172;2022-12-08T19:39:50;5.00;45.80
431;DHT22;202;48.764;9.172;2022-12-08T19:42:31;5.00;45.80
431;DHT22;202;48.764;9.172;2022-12-08T19:45:18;5.00;46.00
431;DHT22;202;48.764;9.172;2022-12-08T19:47:46;5.00;45.80
431;DHT22;202;48.764;9.172;2022-12-08T19:50:14;5.00;46.40
431;DHT22;202;48.764;9.172;2022-12-08T19:52:59;5.00;45.70
431;DHT22;202;48.764;9.172;2022-12-08T19:55:28;4.80;46.10
431;DHT22;202;48.764;9.172;2022-12-08T19:57:55;4.70;46.40
431;DHT22;202;48.764;9.172;2022-12-08T20:00:23;4.70;46.50
431;DHT22;202;48.764;9.172;2022-12-08T20:02:50;4.50;46.80
431;DHT22;202;48.764;9.172;2022-12-08T20:05:17;4.60;46.70
431;DHT22;202;48.764;9.172;2022-12-08T20:07:44;4.60;46.50
431;DHT22;202;48.764;9.172;2022-12-08T20:10:15;4.70;46.60
431;DHT22;202;48.764;9.172;2022-12-08T20:12:44;4.70;46.40
431;DHT22;202;48.764;9.172;2022-12-08T20:15:11;4.70;46.30
431;DHT22;202;48.764;9.172;2022-12-08T20:17:39;4.60;46.20
431;DHT22;202;48.764;9.172;2022-12-08T20:20:07;4.60;46.60
431;DHT22;202;48.764;9.172;2022-12-08T20:22:34;4.60;47.10
431;DHT22;202;48.764;9.172;2022-12-08T20:25:01;4.60;46.70
431;DHT22;202;48.764;9.172;2022-12-08T20:27:32;4.50;46.80
431;DHT22;202;48.764;9.172;2022-12-08T20:33:15;4.50;46.80
431;DHT22;202;48.764;9.172;2022-12-08T20:35:44;4.40;47.10
431;DHT22;202;48.764;9.172;2022-12-08T20:38:31;4.40;47.00
431;DHT22;202;48.764;9.172;2022-12-08T20:41:09;4.50;46.70
431;DHT22;202;48.764;9.172;2022-12-08T20:43:52;4.40;46.10
431;DHT22;202;48.764;9.172;2022-12-08T20:46:22;4.30;46.30
431;DHT22;202;48.764;9.172;2022-12-08T20:48:52;4.30;46.70
431;DHT22;202;48.764;9.172;2022-12-08T20:51:23;4.30;47.20
431;DHT22;202;48.764;9.172;2022-12-08T20:53:51;4.40;46.50
431;DHT22;202;48.764;9.172;2022-12-08T20:56:25;4.40;46.30
431;DHT22;202;48.764;9.172;2022-12-08T20:58:58;4.40;46.60
431;DHT22;202;48.764;9.172;2022-12-08T21:01:26;4.40;46.80
431;DHT22;202;48.764;9.172;2022-12-08T21:03:58;4.50;46.80
431;DHT22;202;48.764;9.172;2022-12-08T21:06:28;4.40;46.60
431;DHT22;202;48.764;9.172;2022-12-08T21:08:56;4.40;46.30
431;DHT22;202;48.764;9.172;2022-12-08T21:11:23;4.30;46.70
431;DHT22;202;48.764;9.172;2022-12-08T21:13:50;4.30;46.90
431;DHT22;202;48.764;9.172;2022-12-08T21:16:19;4.30;47.20
431;DHT22;202;48.764;9.172;2022-12-08T21:18:48;4.30;47.10
431;DHT22;202;48.764;9.172;2022-12-08T21:21:17;4.40;47.10
431;DHT22;202;48.764;9.172;2022-12-08T21:23:44;4.50;46.30
431;DHT22;202;48.764;9.172;2022-12-08T21:26:16;4.30;46.60
431;DHT22;202;48.764;9.172;2022-12-08T21:28:44;4.30;46.90
431;DHT22;202;48.764;9.172;2022-12-08T21:31:24;4.30;46.60
431;DHT22;202;48.764;9.172;2022-12-08T21:33:53;4.20;46.80
431;DHT22;202;48.764;9.172;2022-12-08T21:36:51;4.20;46.70
431;DHT22;202;48.764;9.172;2022-12-08T21:50:14;4.20;46.90